sensor_id;sensor_type;location;lat;lon;timestamp;pressure;altitude;pressure_sealevel;temperature;humidity
32033;BME280;31720;52.638;9.216;2022-10-16T00:00:57;100769.16;;;12.07;100.00
32033;BME280;31720;52.638;9.216;2022-10-16T00:04:00;100761.47;;;12.04;100.00
32033;BME280;31720;52.638;9.216;2022-10-16T00:07:01;100761.81;;;11.98;100.00
32033;BME280;31720;52.638;9.216;2022-10-16T00:10:03;100759.56;;;11.91;100.00
32033;BME280;31720;52.638;9.216;2022-10-16T00:13:05;100758.97;;;11.86;100.00
32033;BME280;31720;52.638;9.216;2022-10-16T00:16:09;100772.22;;;11.85;100.00
32033;BME280;31720;52.638;9.216;2022-10-16T00:19:11;100770.66;;;11.81;100.00
32033;BME280;31720;52.638;9.216;2022-10-16T00:22:12;100781.06;;;11.84;100.00
32033;BME280;31720;52.638;9.216;2022-10-16T00:25:14;100778.53;;;11.82;100.00
32033;BME280;31720;52.638;9.216;2022-10-16T00:28:15;100783.81;;;11.81;100.00
32033;BME280;31720;52.638;9.216;2022-10-16T00:31:19;100783.81;;;11.81;100.00
32033;BME280;31720;52.638;9.216;2022-10-16T00:34:21;100778.75;;;11.78;100.00
32033;BME280;31720;52.638;9.216;2022-10-16T00:37:23;100796.41;;;11.76;100.00
32033;BME280;31720;52.638;9.216;2022-10-16T00:40:24;100800.09;;;11.73;100.00
32033;BME280;31720;52.638;9.216;2022-10-16T00:43:36;100794.72;;;11.75;100.00
32033;BME280;31720;52.638;9.216;2022-10-16T00:46:40;100793.88;;;11.74;100.00
32033;BME280;31720;52.638;9.216;2022-10-16T00:49:42;100799.13;;;11.74;100.00
32033;BME280;31720;52.638;9.216;2022-10-16T00:52:46;100790.28;;;11.75;100.00
32033;BME280;31720;52.638;9.216;2022-10-16T00:55:48;100800.66;;;11.78;100.00
32033;BME280;31720;52.638;9.216;2022-10-16T00:58:49;100805.75;;;11.81;100.00
32033;BME280;31720;52.638;9.216;2022-10-16T01:01:53;100811.66;;;11.86;100.00
32033;BME280;31720;52.638;9.216;2022-10-16T01:04:54;100807.91;;;11.90;100.00
32033;BME280;31720;52.638;9.216;2022-10-16T01:08:00;100810.44;;;11.92;100.00
32033;BME280;31720;52.638;9.216;2022-10-16T01:11:11;100815.53;;;11.95;100.00
32033;BME280;31720;52.638;9.216;2022-10-16T01:14:21;100803.22;;;11.96;100.00
32033;BME280;31720;52.638;9.216;2022-10-16T01:17:28;100812.63;;;12.00;100.00
32033;BME280;31720;52.638;9.216;2022-10-16T01:20:40;100816.00;;;12.02;100.00
32033;BME280;31720;52.638;9.216;2022-10-16T01:23:51;100813.09;;;12.06;100.00
32033;BME280;31720;52.638;9.216;2022-10-16T01:27:11;100818.88;;;12.13;100.00
32033;BME280;31720;52.638;9.216;2022-10-16T01:30:18;100817.00;;;12.15;100.00
32033;BME280;31720;52.638;9.216;2022-10-16T01:33:24;100822.00;;;12.19;100.00
32033;BME280;31720;52.638;9.216;2022-10-16T01:36:33;100819.25;;;12.21;100.00
32033;BME280;31720;52.638;9.216;2022-10-16T01:39:39;100816.63;;;12.21;100.00
32033;BME280;31720;52.638;9.216;2022-10-16T01:42:47;100825.03;;;12.28;100.00
32033;BME280;31720;52.638;9.216;2022-10-16T01:45:51;100822.28;;;12.29;100.00
32033;BME280;31720;52.638;9.216;2022-10-16T01:48:53;100818.97;;;12.26;100.00
32033;BME280;31720;52.638;9.216;2022-10-16T01:51:59;100814.66;;;12.25;100.00
32033;BME280;31720;52.638;9.216;2022-10-16T01:55:04;100807.88;;;12.21;100.00
32033;BME280;31720;52.638;9.216;2022-10-16T01:58:09;100805.50;;;12.16;100.00
32033;BME280;31720;52.638;9.216;2022-10-16T02:01:13;100804.84;;;12.12;100.00
32033;BME280;31720;52.638;9.216;2022-10-16T02:04:18;100812.00;;;12.10;100.00
32033;BME280;31720;52.638;9.216;2022-10-16T02:07:22;100798.34;;;12.04;100.00
32033;BME280;31720;52.638;9.216;2022-10-16T02:10:24;100810.00;;;12.00;100.00
32033;BME280;31720;52.638;9.216;2022-10-16T02:13:36;100822.59;;;11.95;100.00
32033;BME280;31720;52.638;9.216;2022-10-16T02:16:41;100829.88;;;11.89;100.00
32033;BME280;31720;52.638;9.216;2022-10-16T02:19:44;100835.41;;;11.85;100.00
32033;BME280;31720;52.638;9.216;2022-10-16T02:22:49;100833.09;;;11.79;100.00
32033;BME280;31720;52.638;9.216;2022-10-16T02:25:52;100835.00;;;11.77;100.00
32033;BME280;31720;52.638;9.216;2022-10-16T02:29:00;100838.72;;;11.73;100.00
32033;BME280;31720;52.638;9.216;2022-10-16T02:32:04;100839.75;;;11.70;100.00
32033;BME280;31720;52.638;9.216;2022-10-16T02:35:08;100844.41;;;11.65;100.00
32033;BME280;31720;52.638;9.216;2022-10-16T02:38:10;100825.31;;;11.61;100.00
32033;BME280;31720;52.638;9.216;2022-10-16T02:41:13;100816.66;;;11.59;100.00
32033;BME280;31720;52.638;9.216;2022-10-16T02:44:16;100835.16;;;11.58;100.00
32033;BME280;31720;52.638;9.216;2022-10-16T02:47:18;100836.19;;;11.55;100.00
32033;BME280;31720;52.638;9.216;2022-10-16T02:50:19;100819.72;;;11.52;100.00
32033;BME280;31720;52.638;9.216;2022-10-16T02:53:21;100826.94;;;11.48;100.00
32033;BME280;31720;52.638;9.216;2022-10-16T02:56:22;100836.81;;;11.45;100.00
32033;BME280;31720;52.638;9.216;2022-10-16T02:59:25;100828.72;;;11.48;100.00
32033;BME280;31720;52.638;9.216;2022-10-16T03:02:26;100826.19;;;11.46;100.00
32033;BME280;31720;52.638;9.216;2022-10-16T03:05:28;100834.06;;;11.46;100.00
32033;BME280;31720;52.638;9.216;2022-10-16T03:08:29;100834.34;;;11.41;100.00
32033;BME280;31720;52.638;9.216;2022-10-16T03:11:30;100829.06;;;11.41;100.00
32033;BME280;31720;52.638;9.216;2022-10-16T03:14:33;100832.53;;;11.42;100.00
32033;BME280;31720;52.638;9.216;2022-10-16T03:17:35;100835.91;;;11.44;100.00
32033;BME280;31720;52.638;9.216;2022-10-16T03:20:36;100826.94;;;11.48;100.00
32033;BME280;31720;52.638;9.216;2022-10-16T03:23:38;100824.28;;;11.48;100.00
32033;BME280;31720;52.638;9.216;2022-10-16T03:26:39;100833.22;;;11.46;100.00
32033;BME280;31720;52.638;9.216;2022-10-16T03:29:42;100832.38;;;11.45;100.00
32033;BME280;31720;52.638;9.216;2022-10-16T03:32:43;100822.03;;;11.42;100.00
32033;BME280;31720;52.638;9.216;2022-10-16T03:35:51;100815.91;;;11.41;100.00
32033;BME280;31720;52.638;9.216;2022-10-16T03:38:53;100822.28;;;11.37;100.00
32033;BME280;31720;52.638;9.216;2022-10-16T03:41:54;100825.75;;;11.38;100.00
32033;BME280;31720;52.638;9.216;2022-10-16T03:44:57;100825.59;;;11.41;100.00
32033;BME280;31720;52.638;9.216;2022-10-16T03:47:58;100821.16;;;11.41;100.00
32033;BME280;31720;52.638;9.216;2022-10-16T03:51:00;100833.47;;;11.41;100.00
32033;BME280;31720;52.638;9.216;2022-10-16T03:54:01;100833.38;;;11.42;100.00
32033;BME280;31720;52.638;9.216;2022-10-16T03:57:03;100845.69;;;11.42;100.00
32033;BME280;31720;52.638;9.216;2022-10-16T04:00:07;100845.09;;;11.37;100.00
32033;BME280;31720;52.638;9.216;2022-10-16T04:03:09;100837.13;;;11.38;100.00
32033;BME280;31720;52.638;9.216;2022-10-16T04:06:10;100850.28;;;11.38;100.00
32033;BME280;31720;52.638;9.216;2022-10-16T04:09:12;100858.16;;;11.38;100.00
32033;BME280;31720;52.638;9.216;2022-10-16T04:12:13;100872.09;;;11.40;100.00
32033;BME280;31720;52.638;9.216;2022-10-16T04:15:16;100881.78;;;11.40;100.00
32033;BME280;31720;52.638;9.216;2022-10-16T04:18:17;100880.25;;;11.36;100.00
32033;BME280;31720;52.638;9.216;2022-10-16T04:21:19;100882.94;;;11.34;100.00
32033;BME280;31720;52.638;9.216;2022-10-16T04:24:20;100860.91;;;11.37;100.00
32033;BME280;31720;52.638;9.216;2022-10-16T04:27:21;100870.38;;;11.39;100.00
32033;BME280;31720;52.638;9.216;2022-10-16T04:30:24;100879.16;;;11.40;100.00
32033;BME280;31720;52.638;9.216;2022-10-16T04:33:26;100881.78;;;11.40;100.00
32033;BME280;31720;52.638;9.216;2022-10-16T04:36:27;100878.28;;;11.39;100.00
32033;BME280;31720;52.638;9.216;2022-10-16T04:39:29;100884.47;;;11.38;100.00
32033;BME280;31720;52.638;9.216;2022-10-16T04:42:30;100874.91;;;11.37;100.00
32033;BME280;31720;52.638;9.216;2022-10-16T04:45:33;100874.06;;;11.37;100.00
32033;BME280;31720;52.638;9.216;2022-10-16T04:48:34;100879.16;;;11.40;100.00
32033;BME280;31720;52.638;9.216;2022-10-16T04:51:35;100875.59;;;11.41;100.00
32033;BME280;31720;52.638;9.216;2022-10-16T04:54:37;100873.81;;;11.41;100.00
32033;BME280;31720;52.638;9.216;2022-10-16T04:57:38;100877.38;;;11.40;100.00
32033;BME280;31720;52.638;9.216;2022-10-16T05:00:41;100895.78;;;11.40;100.00
32033;BME280;31720;52.638;9.216;2022-10-16T05:03:43;100899.03;;;11.46;100.00
32033;BME280;31720;52.638;9.216;2022-10-16T05:06:44;100905.03;;;11.48;100.00
32033;BME280;31720;52.638;9.216;2022-10-16T05:09:46;100884.75;;;11.50;100.00
32033;BME280;31720;52.638;9.216;2022-10-16T05:12:47;100895.34;;;11.48;100.00
32033;BME280;31720;52.638;9.216;2022-10-16T05:15:50;100890.19;;;11.47;100.00
32033;BME280;31720;52.638;9.216;2022-10-16T05:18:51;100891.97;;;11.46;100.00
32033;BME280;31720;52.638;9.216;2022-10-16T05:21:53;100899.09;;;11.44;100.00
32033;BME280;31720;52.638;9.216;2022-10-16T05:24:55;100904.53;;;11.41;100.00
32033;BME280;31720;52.638;9.216;2022-10-16T05:27:56;100903.69;;;11.40;100.00
32033;BME280;31720;52.638;9.216;2022-10-16T05:30:59;100894.84;;;11.41;100.00
32033;BME280;31720;52.638;9.216;2022-10-16T05:34:04;100908.84;;;11.42;100.00
32033;BME280;31720;52.638;9.216;2022-10-16T05:37:06;100897.47;;;11.41;100.00
32033;BME280;31720;52.638;9.216;2022-10-16T05:40:08;100900.13;;;11.41;100.00
32033;BME280;31720;52.638;9.216;2022-10-16T05:43:10;100911.34;;;11.45;100.00
32033;BME280;31720;52.638;9.216;2022-10-16T05:46:13;100908.50;;;11.48;100.00
32033;BME280;31720;52.638;9.216;2022-10-16T05:49:14;100915.41;;;11.51;100.00
32033;BME280;31720;52.638;9.216;2022-10-16T05:52:16;100906.72;;;11.49;100.00
32033;BME280;31720;52.638;9.216;2022-10-16T05:55:17;100910.47;;;11.45;100.00
32033;BME280;31720;52.638;9.216;2022-10-16T05:58:19;100914.72;;;11.47;100.00
32033;BME280;31720;52.638;9.216;2022-10-16T06:01:22;100915.50;;;11.49;100.00
32033;BME280;31720;52.638;9.216;2022-10-16T06:04:24;100921.66;;;11.48;100.00
32033;BME280;31720;52.638;9.216;2022-10-16T06:07:25;100922.47;;;11.50;100.00
32033;BME280;31720;52.638;9.216;2022-10-16T06:10:27;100932.72;;;11.55;100.00
32033;BME280;31720;52.638;9.216;2022-10-16T06:13:29;100925.34;;;11.61;100.00
32033;BME280;31720;52.638;9.216;2022-10-16T06:16:32;100938.34;;;11.64;100.00
32033;BME280;31720;52.638;9.216;2022-10-16T06:19:34;100934.00;;;11.63;100.00
32033;BME280;31720;52.638;9.216;2022-10-16T06:22:35;100931.44;;;11.62;100.00
32033;BME280;31720;52.638;9.216;2022-10-16T06:25:37;100934.94;;;11.62;100.00
32033;BME280;31720;52.638;9.216;2022-10-16T06:28:38;100940.03;;;11.65;100.00
32033;BME280;31720;52.638;9.216;2022-10-16T06:31:41;100938.25;;;11.66;100.00
32033;BME280;31720;52.638;9.216;2022-10-16T06:34:43;100942.25;;;11.73;100.00
32033;BME280;31720;52.638;9.216;2022-10-16T06:37:44;100948.13;;;11.78;100.00
32033;BME280;31720;52.638;9.216;2022-10-16T06:40:46;100947.78;;;11.84;100.00
32033;BME280;31720;52.638;9.216;2022-10-16T06:43:48;100951.03;;;11.89;100.00
32033;BME280;31720;52.638;9.216;2022-10-16T06:46:51;100959.34;;;11.98;100.00
32033;BME280;31720;52.638;9.216;2022-10-16T06:49:53;100956.66;;;11.99;100.00
32033;BME280;31720;52.638;9.216;2022-10-16T06:52:54;100964.34;;;12.02;100.00
32033;BME280;31720;52.638;9.216;2022-10-16T06:55:56;100966.00;;;12.05;100.00
32033;BME280;31720;52.638;9.216;2022-10-16T06:58:57;100971.94;;;12.08;100.00
32033;BME280;31720;52.638;9.216;2022-10-16T07:02:00;100977.88;;;12.12;100.00
32033;BME280;31720;52.638;9.216;2022-10-16T07:05:02;100980.06;;;12.19;100.00
32033;BME280;31720;52.638;9.216;2022-10-16T07:08:04;100985.94;;;12.25;100.00
32033;BME280;31720;52.638;9.216;2022-10-16T07:11:07;100979.56;;;12.29;100.00
32033;BME280;31720;52.638;9.216;2022-10-16T07:14:14;100990.69;;;12.34;100.00
32033;BME280;31720;52.638;9.216;2022-10-16T07:17:18;100992.38;;;12.35;100.00
32033;BME280;31720;52.638;9.216;2022-10-16T07:20:19;101004.72;;;12.34;100.00
32033;BME280;31720;52.638;9.216;2022-10-16T07:23:21;101010.75;;;12.36;100.00
32033;BME280;31720;52.638;9.216;2022-10-16T07:26:23;101029.00;;;12.39;100.00
32033;BME280;31720;52.638;9.216;2022-10-16T07:29:24;101040.44;;;12.40;100.00
32033;BME280;31720;52.638;9.216;2022-10-16T07:32:27;101042.28;;;12.38;100.00
32033;BME280;31720;52.638;9.216;2022-10-16T07:35:29;101048.59;;;12.35;100.00
32033;BME280;31720;52.638;9.216;2022-10-16T07:38:30;101056.41;;;12.37;100.00
32033;BME280;31720;52.638;9.216;2022-10-16T07:41:32;101058.25;;;12.35;100.00
32033;BME280;31720;52.638;9.216;2022-10-16T07:44:36;101063.47;;;12.36;100.00
32033;BME280;31720;52.638;9.216;2022-10-16T07:47:39;101066.25;;;12.33;100.00
32033;BME280;31720;52.638;9.216;2022-10-16T07:50:40;101069.75;;;12.34;100.00
32033;BME280;31720;52.638;9.216;2022-10-16T07:53:42;101070.84;;;12.30;100.00
32033;BME280;31720;52.638;9.216;2022-10-16T07:56:43;101081.56;;;12.27;100.00
32033;BME280;31720;52.638;9.216;2022-10-16T07:59:45;101078.75;;;12.30;100.00
32033;BME280;31720;52.638;9.216;2022-10-16T08:02:48;101082.91;;;12.34;100.00
32033;BME280;31720;52.638;9.216;2022-10-16T08:05:49;101085.50;;;12.35;100.00
32033;BME280;31720;52.638;9.216;2022-10-16T08:08:51;101096.63;;;12.40;100.00
32033;BME280;31720;52.638;9.216;2022-10-16T08:11:53;101084.78;;;12.48;100.00
32033;BME280;31720;52.638;9.216;2022-10-16T08:14:54;101106.53;;;12.67;100.00
32033;BME280;31720;52.638;9.216;2022-10-16T08:17:58;101124.16;;;12.82;100.00
32033;BME280;31720;52.638;9.216;2022-10-16T08:21:00;101116.63;;;13.06;100.00
32033;BME280;31720;52.638;9.216;2022-10-16T08:24:01;101129.88;;;13.20;100.00
32033;BME280;31720;52.638;9.216;2022-10-16T08:27:03;101132.97;;;13.43;100.00
32033;BME280;31720;52.638;9.216;2022-10-16T08:30:05;101145.28;;;13.58;100.00
32033;BME280;31720;52.638;9.216;2022-10-16T08:33:08;101132.28;;;13.69;100.00
32033;BME280;31720;52.638;9.216;2022-10-16T08:36:11;101142.84;;;13.69;100.00
32033;BME280;31720;52.638;9.216;2022-10-16T08:39:12;101146.34;;;13.70;100.00
32033;BME280;31720;52.638;9.216;2022-10-16T08:42:24;101140.88;;;13.73;100.00
32033;BME280;31720;52.638;9.216;2022-10-16T08:45:43;101141.72;;;13.74;100.00
32033;BME280;31720;52.638;9.216;2022-10-16T08:48:50;101148.81;;;13.87;100.00
32033;BME280;31720;52.638;9.216;2022-10-16T08:51:52;101154.56;;;13.94;100.00
32033;BME280;31720;52.638;9.216;2022-10-16T08:54:54;101154.47;;;14.10;100.00
32033;BME280;31720;52.638;9.216;2022-10-16T08:57:56;101150.50;;;14.17;100.00
32033;BME280;31720;52.638;9.216;2022-10-16T09:00:59;101159.94;;;14.21;100.00
32033;BME280;31720;52.638;9.216;2022-10-16T09:07:43;101164.47;;;14.33;100.00
32033;BME280;31720;52.638;9.216;2022-10-16T09:10:54;101176.56;;;14.37;100.00
32033;BME280;31720;52.638;9.216;2022-10-16T09:14:03;101174.88;;;14.51;100.00
32033;BME280;31720;52.638;9.216;2022-10-16T09:17:18;101174.31;;;14.60;100.00
32033;BME280;31720;52.638;9.216;2022-10-16T09:20:32;101176.19;;;14.72;100.00
32033;BME280;31720;52.638;9.216;2022-10-16T09:23:36;101181.56;;;14.70;100.00
32033;BME280;31720;52.638;9.216;2022-10-16T09:26:38;101178.34;;;14.65;100.00
32033;BME280;31720;52.638;9.216;2022-10-16T09:29:40;101182.81;;;14.65;100.00
32033;BME280;31720;52.638;9.216;2022-10-16T09:32:43;101184.31;;;14.69;100.00
32033;BME280;31720;52.638;9.216;2022-10-16T09:35:48;101193.06;;;14.84;100.00
32033;BME280;31720;52.638;9.216;2022-10-16T09:39:01;101184.44;;;14.94;100.00
32033;BME280;31720;52.638;9.216;2022-10-16T09:42:04;101199.16;;;14.98;100.00
32033;BME280;31720;52.638;9.216;2022-10-16T09:45:18;101195.47;;;15.01;100.00
32033;BME280;31720;52.638;9.216;2022-10-16T09:48:21;101202.47;;;15.02;100.00
32033;BME280;31720;52.638;9.216;2022-10-16T09:51:26;101198.84;;;15.03;100.00
32033;BME280;31720;52.638;9.216;2022-10-16T09:54:28;101199.44;;;15.08;100.00
32033;BME280;31720;52.638;9.216;2022-10-16T09:57:29;101199.13;;;15.13;100.00
32033;BME280;31720;52.638;9.216;2022-10-16T10:00:31;101196.47;;;15.13;100.00
32033;BME280;31720;52.638;9.216;2022-10-16T10:03:37;101198.91;;;15.16;100.00
32033;BME280;31720;52.638;9.216;2022-10-16T10:06:43;101200.41;;;15.20;100.00
32033;BME280;31720;52.638;9.216;2022-10-16T10:09:46;101196.13;;;15.32;100.00
32033;BME280;31720;52.638;9.216;2022-10-16T10:12:47;101188.59;;;15.38;100.00
32033;BME280;31720;52.638;9.216;2022-10-16T10:15:51;101208.00;;;15.39;100.00
32033;BME280;31720;52.638;9.216;2022-10-16T10:18:58;101199.44;;;15.48;100.00
32033;BME280;31720;52.638;9.216;2022-10-16T10:22:01;101207.31;;;15.62;100.00
32033;BME280;31720;52.638;9.216;2022-10-16T10:25:19;101211.47;;;15.66;100.00
32033;BME280;31720;52.638;9.216;2022-10-16T10:28:41;101206.13;;;15.81;100.00
32033;BME280;31720;52.638;9.216;2022-10-16T10:31:48;101220.53;;;15.89;100.00
32033;BME280;31720;52.638;9.216;2022-10-16T10:35:05;101226.59;;;15.91;100.00
32033;BME280;31720;52.638;9.216;2022-10-16T10:38:19;101234.56;;;16.04;100.00
32033;BME280;31720;52.638;9.216;2022-10-16T10:45:20;101235.63;;;16.14;98.82
32033;BME280;31720;52.638;9.216;2022-10-16T10:48:43;101239.00;;;16.16;98.21
32033;BME280;31720;52.638;9.216;2022-10-16T10:51:57;101247.06;;;16.15;98.21
32033;BME280;31720;52.638;9.216;2022-10-16T10:55:10;101247.19;;;16.13;96.99
32033;BME280;31720;52.638;9.216;2022-10-16T11:01:50;101251.22;;;16.19;96.67
32033;BME280;31720;52.638;9.216;2022-10-16T11:05:12;101259.38;;;16.16;97.08
32033;BME280;31720;52.638;9.216;2022-10-16T11:08:19;101267.88;;;16.08;99.01
32033;BME280;31720;52.638;9.216;2022-10-16T11:11:26;101269.94;;;16.03;100.00
32033;BME280;31720;52.638;9.216;2022-10-16T11:14:34;101253.13;;;16.04;97.46
32033;BME280;31720;52.638;9.216;2022-10-16T11:17:42;101266.25;;;16.06;97.65
32033;BME280;31720;52.638;9.216;2022-10-16T11:20:50;101263.28;;;15.97;97.56
32033;BME280;31720;52.638;9.216;2022-10-16T11:23:57;101267.63;;;15.98;98.82
32033;BME280;31720;52.638;9.216;2022-10-16T11:27:06;101261.06;;;16.30;96.74
32033;BME280;31720;52.638;9.216;2022-10-16T11:30:16;101263.19;;;16.63;96.51
32033;BME280;31720;52.638;9.216;2022-10-16T11:33:27;101265.19;;;16.85;93.71
32033;BME280;31720;52.638;9.216;2022-10-16T11:36:36;101264.63;;;17.05;92.15
32033;BME280;31720;52.638;9.216;2022-10-16T11:39:39;101277.69;;;17.08;91.15
32033;BME280;31720;52.638;9.216;2022-10-16T11:42:49;101273.34;;;17.31;88.74
32033;BME280;31720;52.638;9.216;2022-10-16T11:45:51;101275.25;;;17.53;87.81
32033;BME280;31720;52.638;9.216;2022-10-16T11:48:57;101279.78;;;17.64;87.86
32033;BME280;31720;52.638;9.216;2022-10-16T11:52:07;101283.00;;;17.56;84.50
32033;BME280;31720;52.638;9.216;2022-10-16T11:55:16;101290.41;;;17.64;86.44
32033;BME280;31720;52.638;9.216;2022-10-16T11:58:27;101287.09;;;17.49;86.28
32033;BME280;31720;52.638;9.216;2022-10-16T12:01:37;101285.66;;;17.32;86.57
32033;BME280;31720;52.638;9.216;2022-10-16T12:04:43;101288.97;;;17.36;85.86
32033;BME280;31720;52.638;9.216;2022-10-16T12:07:51;101289.34;;;17.42;84.04
32033;BME280;31720;52.638;9.216;2022-10-16T12:11:07;101295.50;;;17.19;85.65
32033;BME280;31720;52.638;9.216;2022-10-16T12:14:22;101304.56;;;17.04;85.64
32033;BME280;31720;52.638;9.216;2022-10-16T12:17:37;101292.78;;;16.95;83.86
32033;BME280;31720;52.638;9.216;2022-10-16T12:20:38;101295.13;;;16.87;85.34
32033;BME280;31720;52.638;9.216;2022-10-16T12:23:50;101303.94;;;16.87;85.86
32033;BME280;31720;52.638;9.216;2022-10-16T12:26:52;101308.41;;;16.87;85.29
32033;BME280;31720;52.638;9.216;2022-10-16T12:29:57;101312.88;;;16.99;83.72
32033;BME280;31720;52.638;9.216;2022-10-16T12:33:01;101314.94;;;17.07;85.13
32033;BME280;31720;52.638;9.216;2022-10-16T12:36:09;101310.81;;;17.03;82.97
32033;BME280;31720;52.638;9.216;2022-10-16T12:39:20;101309.44;;;17.10;83.69
32033;BME280;31720;52.638;9.216;2022-10-16T12:42:31;101320.59;;;17.02;83.83
32033;BME280;31720;52.638;9.216;2022-10-16T12:45:35;101325.25;;;17.11;83.95
32033;BME280;31720;52.638;9.216;2022-10-16T12:48:38;101321.53;;;17.14;84.73
32033;BME280;31720;52.638;9.216;2022-10-16T12:51:41;101330.63;;;17.35;83.33
32033;BME280;31720;52.638;9.216;2022-10-16T12:54:43;101330.00;;;17.56;82.92
32033;BME280;31720;52.638;9.216;2022-10-16T12:57:58;101326.94;;;17.73;81.90
32033;BME280;31720;52.638;9.216;2022-10-16T13:01:10;101325.63;;;17.91;80.22
32033;BME280;31720;52.638;9.216;2022-10-16T13:04:30;101324.25;;;18.21;77.37
32033;BME280;31720;52.638;9.216;2022-10-16T13:07:44;101329.53;;;18.45;77.90
32033;BME280;31720;52.638;9.216;2022-10-16T13:10:58;101329.22;;;18.83;77.49
32033;BME280;31720;52.638;9.216;2022-10-16T13:14:24;101325.34;;;19.10;74.11
32033;BME280;31720;52.638;9.216;2022-10-16T13:17:37;101329.78;;;19.20;72.47
32033;BME280;31720;52.638;9.216;2022-10-16T13:20:54;101328.72;;;19.23;72.34
32033;BME280;31720;52.638;9.216;2022-10-16T13:24:02;101335.69;;;19.46;70.23
32033;BME280;31720;52.638;9.216;2022-10-16T13:27:14;101337.41;;;19.36;70.67
32033;BME280;31720;52.638;9.216;2022-10-16T13:30:23;101352.81;;;19.21;69.60
32033;BME280;31720;52.638;9.216;2022-10-16T13:33:31;101343.38;;;18.95;71.25
32033;BME280;31720;52.638;9.216;2022-10-16T13:36:42;101358.25;;;18.97;71.55
32033;BME280;31720;52.638;9.216;2022-10-16T13:39:44;101362.16;;;19.05;74.22
32033;BME280;31720;52.638;9.216;2022-10-16T13:42:45;101367.63;;;19.03;72.83
32033;BME280;31720;52.638;9.216;2022-10-16T13:46:05;101349.88;;;18.68;72.62
32033;BME280;31720;52.638;9.216;2022-10-16T13:49:14;101358.75;;;18.34;74.19
32033;BME280;31720;52.638;9.216;2022-10-16T13:52:17;101357.41;;;18.17;75.71
32033;BME280;31720;52.638;9.216;2022-10-16T13:55:18;101365.94;;;18.09;74.68
32033;BME280;31720;52.638;9.216;2022-10-16T13:58:20;101366.81;;;18.21;75.91
32033;BME280;31720;52.638;9.216;2022-10-16T14:01:24;101371.28;;;18.20;74.41
32033;BME280;31720;52.638;9.216;2022-10-16T14:04:31;101374.44;;;18.25;72.80
32033;BME280;31720;52.638;9.216;2022-10-16T14:07:34;101381.22;;;18.30;74.29
32033;BME280;31720;52.638;9.216;2022-10-16T14:10:36;101375.53;;;18.23;73.26
32033;BME280;31720;52.638;9.216;2022-10-16T14:13:39;101387.38;;;18.19;74.75
32033;BME280;31720;52.638;9.216;2022-10-16T14:16:44;101391.88;;;18.30;73.91
32033;BME280;31720;52.638;9.216;2022-10-16T14:19:49;101393.47;;;18.32;72.97
32033;BME280;31720;52.638;9.216;2022-10-16T14:22:58;101396.13;;;18.32;71.53
32033;BME280;31720;52.638;9.216;2022-10-16T14:26:16;101391.53;;;18.34;72.19
32033;BME280;31720;52.638;9.216;2022-10-16T14:29:19;101391.63;;;18.21;72.96
32033;BME280;31720;52.638;9.216;2022-10-16T14:32:23;101400.97;;;18.03;74.38
32033;BME280;31720;52.638;9.216;2022-10-16T14:35:29;101400.88;;;18.05;74.25
32033;BME280;31720;52.638;9.216;2022-10-16T14:38:32;101406.06;;;18.06;73.81
32033;BME280;31720;52.638;9.216;2022-10-16T14:41:42;101403.97;;;17.98;74.93
32033;BME280;31720;52.638;9.216;2022-10-16T14:44:46;101407.84;;;17.94;76.16
32033;BME280;31720;52.638;9.216;2022-10-16T14:47:50;101400.41;;;17.87;76.04
32033;BME280;31720;52.638;9.216;2022-10-16T14:50:55;101404.03;;;17.86;75.64
32033;BME280;31720;52.638;9.216;2022-10-16T14:53:56;101410.63;;;17.80;76.59
32033;BME280;31720;52.638;9.216;2022-10-16T14:56:58;101405.97;;;17.71;76.77
32033;BME280;31720;52.638;9.216;2022-10-16T15:00:00;101408.00;;;17.67;78.70
32033;BME280;31720;52.638;9.216;2022-10-16T15:03:01;101420.78;;;17.62;77.80
32033;BME280;31720;52.638;9.216;2022-10-16T15:06:09;101422.16;;;17.68;77.57
32033;BME280;31720;52.638;9.216;2022-10-16T15:09:11;101430.13;;;17.68;77.48
32033;BME280;31720;52.638;9.216;2022-10-16T15:12:13;101427.78;;;17.63;78.10
32033;BME280;31720;52.638;9.216;2022-10-16T15:15:25;101431.00;;;17.56;78.80
32033;BME280;31720;52.638;9.216;2022-10-16T15:18:29;101441.75;;;17.54;78.81
32033;BME280;31720;52.638;9.216;2022-10-16T15:21:32;101445.47;;;17.52;80.55
32033;BME280;31720;52.638;9.216;2022-10-16T15:24:33;101435.38;;;17.44;80.12
32033;BME280;31720;52.638;9.216;2022-10-16T15:27:35;101446.22;;;17.41;80.91
32033;BME280;31720;52.638;9.216;2022-10-16T15:30:40;101447.41;;;17.37;81.54
32033;BME280;31720;52.638;9.216;2022-10-16T15:33:42;101453.38;;;17.28;84.05
32033;BME280;31720;52.638;9.216;2022-10-16T15:36:45;101457.84;;;17.27;81.51
32033;BME280;31720;52.638;9.216;2022-10-16T15:39:46;101457.59;;;17.30;80.87
32033;BME280;31720;52.638;9.216;2022-10-16T15:42:48;101462.06;;;17.30;79.75
32033;BME280;31720;52.638;9.216;2022-10-16T15:45:58;101464.00;;;17.28;79.90
32033;BME280;31720;52.638;9.216;2022-10-16T15:49:01;101450.72;;;17.28;79.87
32033;BME280;31720;52.638;9.216;2022-10-16T15:52:04;101447.94;;;17.16;81.29
32033;BME280;31720;52.638;9.216;2022-10-16T15:55:07;101454.53;;;17.11;80.96
32033;BME280;31720;52.638;9.216;2022-10-16T15:58:09;101450.19;;;16.97;83.05
32033;BME280;31720;52.638;9.216;2022-10-16T16:01:10;101453.34;;;16.89;83.91
32033;BME280;31720;52.638;9.216;2022-10-16T16:04:12;101451.91;;;16.85;84.39
32033;BME280;31720;52.638;9.216;2022-10-16T16:07:15;101451.91;;;16.71;87.56